sensor_id;sensor_type;location;lat;lon;timestamp;temperature;humidity
34989;DHT22;21192;40.182;44.516;2023-11-19T00:00:47;15.50;63.70
34989;DHT22;21192;40.182;44.516;2023-11-19T00:03:13;15.50;63.70
34989;DHT22;21192;40.182;44.516;2023-11-19T00:05:39;15.60;63.70
34989;DHT22;21192;40.182;44.516;2023-11-19T00:08:05;15.60;63.60
34989;DHT22;21192;40.182;44.516;2023-11-19T00:10:32;15.60;63.60
34989;DHT22;21192;40.182;44.516;2023-11-19T00:12:57;15.60;63.60
34989;DHT22;21192;40.182;44.516;2023-11-19T00:15:23;15.70;63.50
34989;DHT22;21192;40.182;44.516;2023-11-19T00:17:49;15.70;63.50
34989;DHT22;21192;40.182;44.516;2023-11-19T00:20:17;15.70;63.30
34989;DHT22;21192;40.182;44.516;2023-11-19T00:22:43;15.70;63.20
34989;DHT22;21192;40.182;44.516;2023-11-19T00:25:09;15.70;63.10
34989;DHT22;21192;40.182;44.516;2023-11-19T00:27:36;15.70;63.20
34989;DHT22;21192;40.182;44.516;2023-11-19T00:30:06;15.60;63.20
34989;DHT22;21192;40.182;44.516;2023-11-19T00:32:35;15.60;63.30
34989;DHT22;21192;40.182;44.516;2023-11-19T00:35:01;15.60;63.30
34989;DHT22;21192;40.182;44.516;2023-11-19T00:37:28;15.70;63.40
34989;DHT22;21192;40.182;44.516;2023-11-19T00:39:54;15.70;63.40
34989;DHT22;21192;40.182;44.516;2023-11-19T00:42:22;15.70;63.50
34989;DHT22;21192;40.182;44.516;2023-11-19T00:44:50;15.70;63.40
34989;DHT22;21192;40.182;44.516;2023-11-19T00:47:15;15.80;63.50
34989;DHT22;21192;40.182;44.516;2023-11-19T00:49:41;15.70;63.50
34989;DHT22;21192;40.182;44.516;2023-11-19T00:52:08;15.70;63.50
34989;DHT22;21192;40.182;44.516;2023-11-19T00:54:34;15.70;63.60
34989;DHT22;21192;40.182;44.516;2023-11-19T00:57:00;15.70;63.80
34989;DHT22;21192;40.182;44.516;2023-11-19T00:59:27;15.70;63.80
34989;DHT22;21192;40.182;44.516;2023-11-19T01:01:54;15.70;63.80
34989;DHT22;21192;40.182;44.516;2023-11-19T01:04:20;15.80;63.80
34989;DHT22;21192;40.182;44.516;2023-11-19T01:06:46;15.70;63.80
34989;DHT22;21192;40.182;44.516;2023-11-19T01:09:12;15.70;63.90
34989;DHT22;21192;40.182;44.516;2023-11-19T01:11:37;15.70;64.10
34989;DHT22;21192;40.182;44.516;2023-11-19T01:14:04;15.70;64.10
34989;DHT22;21192;40.182;44.516;2023-11-19T01:16:30;15.70;64.20
34989;DHT22;21192;40.182;44.516;2023-11-19T01:18:56;15.70;64.20
34989;DHT22;21192;40.182;44.516;2023-11-19T01:21:22;15.60;64.30
34989;DHT22;21192;40.182;44.516;2023-11-19T01:23:48;15.60;64.40
34989;DHT22;21192;40.182;44.516;2023-11-19T01:26:13;15.50;64.60
34989;DHT22;21192;40.182;44.516;2023-11-19T01:28:40;15.50;64.60
34989;DHT22;21192;40.182;44.516;2023-11-19T01:31:15;15.50;64.50
34989;DHT22;21192;40.182;44.516;2023-11-19T01:33:41;15.50;64.60
34989;DHT22;21192;40.182;44.516;2023-11-19T01:36:13;15.50;64.80
34989;DHT22;21192;40.182;44.516;2023-11-19T01:38:39;15.40;64.90
34989;DHT22;21192;40.182;44.516;2023-11-19T01:41:04;15.40;64.90
34989;DHT22;21192;40.182;44.516;2023-11-19T01:43:38;15.50;65.10
34989;DHT22;21192;40.182;44.516;2023-11-19T01:46:05;15.40;65.90
34989;DHT22;21192;40.182;44.516;2023-11-19T01:48:34;15.40;65.20
34989;DHT22;21192;40.182;44.516;2023-11-19T01:51:05;15.40;65.30
34989;DHT22;21192;40.182;44.516;2023-11-19T01:53:33;15.40;65.50
34989;DHT22;21192;40.182;44.516;2023-11-19T01:56:01;15.40;65.60
34989;DHT22;21192;40.182;44.516;2023-11-19T01:58:27;15.30;65.70
34989;DHT22;21192;40.182;44.516;2023-11-19T02:00:55;15.40;65.80
34989;DHT22;21192;40.182;44.516;2023-11-19T02:03:21;15.40;65.90
34989;DHT22;21192;40.182;44.516;2023-11-19T02:05:49;15.40;65.80
34989;DHT22;21192;40.182;44.516;2023-11-19T02:08:16;15.40;65.80
34989;DHT22;21192;40.182;44.516;2023-11-19T02:10:42;15.30;65.70
34989;DHT22;21192;40.182;44.516;2023-11-19T02:13:08;15.30;65.90
34989;DHT22;21192;40.182;44.516;2023-11-19T02:15:35;15.40;65.90
34989;DHT22;21192;40.182;44.516;2023-11-19T02:18:21;15.30;66.00
34989;DHT22;21192;40.182;44.516;2023-11-19T02:20:50;15.30;66.00
34989;DHT22;21192;40.182;44.516;2023-11-19T02:23:18;15.30;65.90
34989;DHT22;21192;40.182;44.516;2023-11-19T02:25:54;15.20;65.90
34989;DHT22;21192;40.182;44.516;2023-11-19T02:28:21;15.20;66.00
34989;DHT22;21192;40.182;44.516;2023-11-19T02:30:47;15.10;66.10
34989;DHT22;21192;40.182;44.516;2023-11-19T02:33:13;15.10;66.20
34989;DHT22;21192;40.182;44.516;2023-11-19T02:35:40;15.10;66.20
34989;DHT22;21192;40.182;44.516;2023-11-19T02:38:06;15.10;66.20
34989;DHT22;21192;40.182;44.516;2023-11-19T02:40:33;15.10;66.20
34989;DHT22;21192;40.182;44.516;2023-11-19T02:42:59;15.00;66.20
34989;DHT22;21192;40.182;44.516;2023-11-19T02:45:25;14.90;66.50
34989;DHT22;21192;40.182;44.516;2023-11-19T02:47:52;14.90;66.70
34989;DHT22;21192;40.182;44.516;2023-11-19T02:50:19;15.00;66.70
34989;DHT22;21192;40.182;44.516;2023-11-19T02:52:52;15.00;66.50
34989;DHT22;21192;40.182;44.516;2023-11-19T02:55:18;15.10;66.40
34989;DHT22;21192;40.182;44.516;2023-11-19T02:57:45;15.10;66.40
34989;DHT22;21192;40.182;44.516;2023-11-19T03:00:21;15.00;66.50
34989;DHT22;21192;40.182;44.516;2023-11-19T03:02:57;15.00;66.70
34989;DHT22;21192;40.182;44.516;2023-11-19T03:05:35;15.00;66.80
34989;DHT22;21192;40.182;44.516;2023-11-19T03:08:01;14.90;66.90
34989;DHT22;21192;40.182;44.516;2023-11-19T03:10:28;14.90;67.10
34989;DHT22;21192;40.182;44.516;2023-11-19T03:12:54;14.80;67.20
34989;DHT22;21192;40.182;44.516;2023-11-19T03:15:22;14.80;67.30
34989;DHT22;21192;40.182;44.516;2023-11-19T03:17:48;14.80;67.40
34989;DHT22;21192;40.182;44.516;2023-11-19T03:20:14;14.80;67.30
34989;DHT22;21192;40.182;44.516;2023-11-19T03:22:42;14.80;67.40
34989;DHT22;21192;40.182;44.516;2023-11-19T03:25:09;14.90;67.40
34989;DHT22;21192;40.182;44.516;2023-11-19T03:27:39;14.90;67.30
34989;DHT22;21192;40.182;44.516;2023-11-19T03:30:08;15.00;67.30
34989;DHT22;21192;40.182;44.516;2023-11-19T03:32:35;15.00;67.30
34989;DHT22;21192;40.182;44.516;2023-11-19T03:35:04;15.00;67.30
34989;DHT22;21192;40.182;44.516;2023-11-19T03:37:32;15.00;67.40
34989;DHT22;21192;40.182;44.516;2023-11-19T03:39:58;15.10;67.50
34989;DHT22;21192;40.182;44.516;2023-11-19T03:42:28;15.10;67.70
34989;DHT22;21192;40.182;44.516;2023-11-19T03:44:55;15.10;67.70
34989;DHT22;21192;40.182;44.516;2023-11-19T03:47:21;15.20;67.60
34989;DHT22;21192;40.182;44.516;2023-11-19T03:49:50;15.20;67.50
34989;DHT22;21192;40.182;44.516;2023-11-19T03:52:17;15.20;67.50
34989;DHT22;21192;40.182;44.516;2023-11-19T03:54:44;15.30;67.60
34989;DHT22;21192;40.182;44.516;2023-11-19T03:57:12;15.30;67.60
34989;DHT22;21192;40.182;44.516;2023-11-19T03:59:39;15.40;67.60
34989;DHT22;21192;40.182;44.516;2023-11-19T04:02:05;15.40;67.60
34989;DHT22;21192;40.182;44.516;2023-11-19T04:04:32;15.50;67.80
34989;DHT22;21192;40.182;44.516;2023-11-19T04:06:58;15.50;67.70
34989;DHT22;21192;40.182;44.516;2023-11-19T04:09:26;15.60;67.70
34989;DHT22;21192;40.182;44.516;2023-11-19T04:11:52;15.60;67.70
34989;DHT22;21192;40.182;44.516;2023-11-19T04:14:18;15.70;67.90
34989;DHT22;21192;40.182;44.516;2023-11-19T04:16:47;15.80;67.60
34989;DHT22;21192;40.182;44.516;2023-11-19T04:19:13;15.70;67.50
34989;DHT22;21192;40.182;44.516;2023-11-19T04:21:42;15.80;67.70
34989;DHT22;21192;40.182;44.516;2023-11-19T04:24:09;15.80;67.80
34989;DHT22;21192;40.182;44.516;2023-11-19T04:26:41;15.80;67.80
34989;DHT22;21192;40.182;44.516;2023-11-19T04:29:09;15.80;67.80
34989;DHT22;21192;40.182;44.516;2023-11-19T04:31:36;15.90;67.80
34989;DHT22;21192;40.182;44.516;2023-11-19T04:34:02;15.90;67.70
34989;DHT22;21192;40.182;44.516;2023-11-19T04:36:28;16.00;67.70
34989;DHT22;21192;40.182;44.516;2023-11-19T04:38:55;15.90;67.80
34989;DHT22;21192;40.182;44.516;2023-11-19T04:41:21;15.90;68.20
34989;DHT22;21192;40.182;44.516;2023-11-19T04:43:47;15.90;69.20
34989;DHT22;21192;40.182;44.516;2023-11-19T04:46:12;15.90;69.50
34989;DHT22;21192;40.182;44.516;2023-11-19T04:48:38;16.00;69.50
34989;DHT22;21192;40.182;44.516;2023-11-19T04:51:07;15.90;69.20
34989;DHT22;21192;40.182;44.516;2023-11-19T04:53:35;16.00;69.20
34989;DHT22;21192;40.182;44.516;2023-11-19T04:56:01;16.00;69.10
34989;DHT22;21192;40.182;44.516;2023-11-19T04:58:29;15.90;69.00
34989;DHT22;21192;40.182;44.516;2023-11-19T05:00:55;15.80;69.10
34989;DHT22;21192;40.182;44.516;2023-11-19T05:03:22;15.90;69.10
34989;DHT22;21192;40.182;44.516;2023-11-19T05:05:48;15.80;69.20
34989;DHT22;21192;40.182;44.516;2023-11-19T05:08:14;15.80;69.50
34989;DHT22;21192;40.182;44.516;2023-11-19T05:10:40;15.90;69.50
34989;DHT22;21192;40.182;44.516;2023-11-19T05:13:06;16.00;69.30
34989;DHT22;21192;40.182;44.516;2023-11-19T05:15:32;16.10;69.10
34989;DHT22;21192;40.182;44.516;2023-11-19T05:17:59;16.20;69.00
34989;DHT22;21192;40.182;44.516;2023-11-19T05:20:24;16.30;68.60
34989;DHT22;21192;40.182;44.516;2023-11-19T05:22:50;16.40;68.40
34989;DHT22;21192;40.182;44.516;2023-11-19T05:25:16;16.50;68.10
34989;DHT22;21192;40.182;44.516;2023-11-19T05:27:42;16.60;67.90
34989;DHT22;21192;40.182;44.516;2023-11-19T05:30:08;16.50;68.00
34989;DHT22;21192;40.182;44.516;2023-11-19T05:32:36;16.40;68.20
34989;DHT22;21192;40.182;44.516;2023-11-19T05:35:02;16.40;68.30
34989;DHT22;21192;40.182;44.516;2023-11-19T05:37:28;16.30;68.60
34989;DHT22;21192;40.182;44.516;2023-11-19T05:39:54;16.30;68.60
34989;DHT22;21192;40.182;44.516;2023-11-19T05:42:20;16.40;68.50
34989;DHT22;21192;40.182;44.516;2023-11-19T05:44:46;16.50;68.30
34989;DHT22;21192;40.182;44.516;2023-11-19T05:47:11;16.60;68.10
34989;DHT22;21192;40.182;44.516;2023-11-19T05:49:37;16.70;67.90
34989;DHT22;21192;40.182;44.516;2023-11-19T05:52:04;16.70;67.90
34989;DHT22;21192;40.182;44.516;2023-11-19T05:54:33;16.70;68.10
34989;DHT22;21192;40.182;44.516;2023-11-19T05:57:04;16.70;68.10
34989;DHT22;21192;40.182;44.516;2023-11-19T05:59:30;16.80;68.10
34989;DHT22;21192;40.182;44.516;2023-11-19T06:01:57;16.80;67.90
34989;DHT22;21192;40.182;44.516;2023-11-19T06:04:23;16.70;68.10
34989;DHT22;21192;40.182;44.516;2023-11-19T06:06:49;16.60;68.30
34989;DHT22;21192;40.182;44.516;2023-11-19T06:09:15;16.60;68.50
34989;DHT22;21192;40.182;44.516;2023-11-19T06:11:41;16.70;68.50
34989;DHT22;21192;40.182;44.516;2023-11-19T06:14:06;16.70;68.30
34989;DHT22;21192;40.182;44.516;2023-11-19T06:16:32;16.90;68.30
34989;DHT22;21192;40.182;44.516;2023-11-19T06:18:58;16.90;68.10
34989;DHT22;21192;40.182;44.516;2023-11-19T06:21:24;17.00;68.20
34989;DHT22;21192;40.182;44.516;2023-11-19T06:23:50;17.20;68.30
34989;DHT22;21192;40.182;44.516;2023-11-19T06:26:17;17.50;68.10
34989;DHT22;21192;40.182;44.516;2023-11-19T06:28:43;17.90;67.40
34989;DHT22;21192;40.182;44.516;2023-11-19T06:31:10;18.50;66.40
34989;DHT22;21192;40.182;44.516;2023-11-19T06:33:36;19.30;65.30
34989;DHT22;21192;40.182;44.516;2023-11-19T06:36:02;19.50;63.20
34989;DHT22;21192;40.182;44.516;2023-11-19T06:38:27;19.50;61.90
34989;DHT22;21192;40.182;44.516;2023-11-19T06:40:53;19.30;61.60
34989;DHT22;21192;40.182;44.516;2023-11-19T06:43:19;19.20;61.90
34989;DHT22;21192;40.182;44.516;2023-11-19T06:45:45;19.20;61.90
34989;DHT22;21192;40.182;44.516;2023-11-19T06:48:11;19.00;61.70
34989;DHT22;21192;40.182;44.516;2023-11-19T06:50:36;18.90;61.90
34989;DHT22;21192;40.182;44.516;2023-11-19T06:53:02;18.90;62.30
34989;DHT22;21192;40.182;44.516;2023-11-19T06:55:30;18.70;62.20
34989;DHT22;21192;40.182;44.516;2023-11-19T06:57:56;18.50;62.50
34989;DHT22;21192;40.182;44.516;2023-11-19T07:00:21;18.30;62.70
34989;DHT22;21192;40.182;44.516;2023-11-19T07:02:47;18.20;63.00
34989;DHT22;21192;40.182;44.516;2023-11-19T07:05:13;18.00;63.50
34989;DHT22;21192;40.182;44.516;2023-11-19T07:07:39;17.90;63.80
34989;DHT22;21192;40.182;44.516;2023-11-19T07:10:06;17.90;63.90
34989;DHT22;21192;40.182;44.516;2023-11-19T07:12:34;17.80;64.20
34989;DHT22;21192;40.182;44.516;2023-11-19T07:15:01;17.80;64.30
34989;DHT22;21192;40.182;44.516;2023-11-19T07:17:30;17.90;64.40
34989;DHT22;21192;40.182;44.516;2023-11-19T07:19:56;17.80;64.30
34989;DHT22;21192;40.182;44.516;2023-11-19T07:22:25;17.80;64.50
34989;DHT22;21192;40.182;44.516;2023-11-19T07:24:51;17.80;64.80
34989;DHT22;21192;40.182;44.516;2023-11-19T07:27:17;17.80;64.80
34989;DHT22;21192;40.182;44.516;2023-11-19T07:29:44;17.80;64.90
34989;DHT22;21192;40.182;44.516;2023-11-19T07:32:10;17.80;65.00
34989;DHT22;21192;40.182;44.516;2023-11-19T07:34:36;17.80;64.90
34989;DHT22;21192;40.182;44.516;2023-11-19T07:37:02;17.70;64.70
34989;DHT22;21192;40.182;44.516;2023-11-19T07:39:29;17.70;64.70
34989;DHT22;21192;40.182;44.516;2023-11-19T07:41:55;17.70;64.80
34989;DHT22;21192;40.182;44.516;2023-11-19T07:44:21;17.70;65.00
34989;DHT22;21192;40.182;44.516;2023-11-19T07:46:47;17.70;65.00
34989;DHT22;21192;40.182;44.516;2023-11-19T07:49:13;17.60;65.00
34989;DHT22;21192;40.182;44.516;2023-11-19T07:51:39;17.60;65.10
34989;DHT22;21192;40.182;44.516;2023-11-19T07:54:06;17.60;65.20
34989;DHT22;21192;40.182;44.516;2023-11-19T07:56:33;17.60;65.20
34989;DHT22;21192;40.182;44.516;2023-11-19T07:59:01;17.60;65.40
34989;DHT22;21192;40.182;44.516;2023-11-19T08:01:27;17.50;65.40
34989;DHT22;21192;40.182;44.516;2023-11-19T08:03:52;17.50;65.40
34989;DHT22;21192;40.182;44.516;2023-11-19T08:06:18;17.50;65.70
34989;DHT22;21192;40.182;44.516;2023-11-19T08:08:44;17.50;65.50
34989;DHT22;21192;40.182;44.516;2023-11-19T08:11:10;17.60;66.20
34989;DHT22;21192;40.182;44.516;2023-11-19T08:13:36;17.70;65.50
34989;DHT22;21192;40.182;44.516;2023-11-19T08:16:02;17.70;65.50
34989;DHT22;21192;40.182;44.516;2023-11-19T08:18:28;17.70;65.40
34989;DHT22;21192;40.182;44.516;2023-11-19T08:20:53;17.70;65.40
34989;DHT22;21192;40.182;44.516;2023-11-19T08:23:20;17.80;65.30
34989;DHT22;21192;40.182;44.516;2023-11-19T08:25:46;17.90;65.10
34989;DHT22;21192;40.182;44.516;2023-11-19T08:28:12;17.90;64.80
34989;DHT22;21192;40.182;44.516;2023-11-19T08:30:38;18.00;64.60
34989;DHT22;21192;40.182;44.516;2023-11-19T08:33:04;18.00;64.40
34989;DHT22;21192;40.182;44.516;2023-11-19T08:35:31;18.10;64.20
34989;DHT22;21192;40.182;44.516;2023-11-19T08:37:57;18.10;63.80
34989;DHT22;21192;40.182;44.516;2023-11-19T08:40:24;18.10;63.70
34989;DHT22;21192;40.182;44.516;2023-11-19T08:42:51;18.10;63.70
34989;DHT22;21192;40.182;44.516;2023-11-19T08:45:17;18.10;63.70
34989;DHT22;21192;40.182;44.516;2023-11-19T08:47:43;18.10;63.80
34989;DHT22;21192;40.182;44.516;2023-11-19T08:50:11;18.10;63.80
34989;DHT22;21192;40.182;44.516;2023-11-19T08:52:37;18.20;63.50
34989;DHT22;21192;40.182;44.516;2023-11-19T08:55:04;18.20;63.10
34989;DHT22;21192;40.182;44.516;2023-11-19T08:57:35;18.20;63.10
34989;DHT22;21192;40.182;44.516;2023-11-19T09:00:01;18.10;62.80
34989;DHT22;21192;40.182;44.516;2023-11-19T09:02:28;18.00;62.60
34989;DHT22;21192;40.182;44.516;2023-11-19T09:04:54;18.00;62.90
34989;DHT22;21192;40.182;44.516;2023-11-19T09:07:20;18.00;63.00
34989;DHT22;21192;40.182;44.516;2023-11-19T09:09:46;18.10;63.20
34989;DHT22;21192;40.182;44.516;2023-11-19T09:12:12;18.10;63.40
34989;DHT22;21192;40.182;44.516;2023-11-19T09:14:39;18.00;63.40
34989;DHT22;21192;40.182;44.516;2023-11-19T09:17:05;17.90;63.70
34989;DHT22;21192;40.182;44.516;2023-11-19T09:19:32;17.90;63.70
34989;DHT22;21192;40.182;44.516;2023-11-19T09:22:00;17.90;64.00
34989;DHT22;21192;40.182;44.516;2023-11-19T09:24:26;17.90;64.00
34989;DHT22;21192;40.182;44.516;2023-11-19T09:26:51;17.90;64.10
34989;DHT22;21192;40.182;44.516;2023-11-19T09:29:17;17.80;64.30
34989;DHT22;21192;40.182;44.516;2023-11-19T09:31:43;17.80;64.50
34989;DHT22;21192;40.182;44.516;2023-11-19T09:34:09;17.80;64.60
34989;DHT22;21192;40.182;44.516;2023-11-19T09:36:35;17.70;65.30
34989;DHT22;21192;40.182;44.516;2023-11-19T09:39:01;17.70;64.70
34989;DHT22;21192;40.182;44.516;2023-11-19T09:41:27;17.70;64.70
34989;DHT22;21192;40.182;44.516;2023-11-19T09:43:53;17.80;64.70
34989;DHT22;21192;40.182;44.516;2023-11-19T09:46:19;17.80;64.60
34989;DHT22;21192;40.182;44.516;2023-11-19T09:48:46;17.80;64.50
34989;DHT22;21192;40.182;44.516;2023-11-19T09:51:14;17.90;64.30
34989;DHT22;21192;40.182;44.516;2023-11-19T09:53:40;17.90;64.10
34989;DHT22;21192;40.182;44.516;2023-11-19T09:56:06;17.90;63.70
34989;DHT22;21192;40.182;44.516;2023-11-19T09:58:33;17.90;63.70
34989;DHT22;21192;40.182;44.516;2023-11-19T10:01:00;17.90;63.50
34989;DHT22;21192;40.182;44.516;2023-11-19T10:03:34;17.90;63.20
34989;DHT22;21192;40.182;44.516;2023-11-19T10:06:04;17.90;63.10
34989;DHT22;21192;40.182;44.516;2023-11-19T10:08:32;17.90;63.10
34989;DHT22;21192;40.182;44.516;2023-11-19T10:10:58;18.00;63.10
34989;DHT22;21192;40.182;44.516;2023-11-19T10:13:28;18.20;63.10
34989;DHT22;21192;40.182;44.516;2023-11-19T10:15:56;18.30;62.80
34989;DHT22;21192;40.182;44.516;2023-11-19T10:18:26;18.40;62.00
34989;DHT22;21192;40.182;44.516;2023-11-19T10:20:52;18.40;61.70
34989;DHT22;21192;40.182;44.516;2023-11-19T10:23:19;18.50;61.70
34989;DHT22;21192;40.182;44.516;2023-11-19T10:25:45;18.40;61.50
34989;DHT22;21192;40.182;44.516;2023-11-19T10:28:11;18.40;61.40
34989;DHT22;21192;40.182;44.516;2023-11-19T10:30:36;18.40;61.50
34989;DHT22;21192;40.182;44.516;2023-11-19T10:35:29;18.30;61.20
34989;DHT22;21192;40.182;44.516;2023-11-19T10:37:55;18.20;61.00
34989;DHT22;21192;40.182;44.516;2023-11-19T10:40:21;18.20;61.00
34989;DHT22;21192;40.182;44.516;2023-11-19T10:42:47;18.20;61.00
34989;DHT22;21192;40.182;44.516;2023-11-19T10:45:23;18.10;60.90
34989;DHT22;21192;40.182;44.516;2023-11-19T10:47:51;18.10;60.90
34989;DHT22;21192;40.182;44.516;2023-11-19T10:50:17;18.10;61.10
34989;DHT22;21192;40.182;44.516;2023-11-19T10:52:44;18.10;61.40
34989;DHT22;21192;40.182;44.516;2023-11-19T10:55:11;18.10;61.20
34989;DHT22;21192;40.182;44.516;2023-11-19T10:57:43;18.10;61.10
34989;DHT22;21192;40.182;44.516;2023-11-19T11:00:14;18.10;61.00
34989;DHT22;21192;40.182;44.516;2023-11-19T11:02:45;18.10;60.90
34989;DHT22;21192;40.182;44.516;2023-11-19T11:05:14;18.00;60.90
34989;DHT22;21192;40.182;44.516;2023-11-19T11:07:43;18.00;60.70
34989;DHT22;21192;40.182;44.516;2023-11-19T11:10:10;17.90;60.60
34989;DHT22;21192;40.182;44.516;2023-11-19T11:12:37;17.90;60.60
34989;DHT22;21192;40.182;44.516;2023-11-19T11:15:06;17.90;60.60
34989;DHT22;21192;40.182;44.516;2023-11-19T11:17:33;17.90;60.60
34989;DHT22;21192;40.182;44.516;2023-11-19T11:19:59;17.90;60.60
34989;DHT22;21192;40.182;44.516;2023-11-19T11:22:27;17.90;60.50
34989;DHT22;21192;40.182;44.516;2023-11-19T11:30:55;18.00;60.70
34989;DHT22;21192;40.182;44.516;2023-11-19T11:36:19;18.10;60.30
34989;DHT22;21192;40.182;44.516;2023-11-19T11:38:48;18.20;60.30
34989;DHT22;21192;40.182;44.516;2023-11-19T11:41:24;18.10;60.90
34989;DHT22;21192;40.182;44.516;2023-11-19T11:43:54;18.10;60.30
34989;DHT22;21192;40.182;44.516;2023-11-19T11:49:03;18.20;60.10
34989;DHT22;21192;40.182;44.516;2023-11-19T11:57:11;18.20;60.30
34989;DHT22;21192;40.182;44.516;2023-11-19T12:02:08;18.20;60.10
34989;DHT22;21192;40.182;44.516;2023-11-19T12:04:35;18.20;60.00
34989;DHT22;21192;40.182;44.516;2023-11-19T12:07:15;18.20;60.00
34989;DHT22;21192;40.182;44.516;2023-11-19T12:09:45;18.10;59.90
34989;DHT22;21192;40.182;44.516;2023-11-19T12:12:19;18.10;60.10
34989;DHT22;21192;40.182;44.516;2023-11-19T12:17:48;18.00;60.30
34989;DHT22;21192;40.182;44.516;2023-11-19T12:20:15;18.00;60.50
34989;DHT22;21192;40.182;44.516;2023-11-19T12:22:44;18.00;60.60
34989;DHT22;21192;40.182;44.516;2023-11-19T12:25:11;18.00;60.60
34989;DHT22;21192;40.182;44.516;2023-11-19T12:27:42;18.00;60.60
34989;DHT22;21192;40.182;44.516;2023-11-19T12:30:09;18.00;60.50
34989;DHT22;21192;40.182;44.516;2023-11-19T12:32:42;18.00;60.50
34989;DHT22;21192;40.182;44.516;2023-11-19T12:35:09;18.00;60.40
34989;DHT22;21192;40.182;44.516;2023-11-19T12:37:42;18.00;60.40
34989;DHT22;21192;40.182;44.516;2023-11-19T12:40:26;17.90;60.50
34989;DHT22;21192;40.182;44.516;2023-11-19T12:42:54;17.90;60.80
34989;DHT22;21192;40.182;44.516;2023-11-19T12:45:21;17.90;60.90
34989;DHT22;21192;40.182;44.516;2023-11-19T12:47:49;17.80;61.10
34989;DHT22;21192;40.182;44.516;2023-11-19T12:50:17;17.80;61.20
34989;DHT22;21192;40.182;44.516;2023-11-19T12:52:58;17.70;61.20
34989;DHT22;21192;40.182;44.516;2023-11-19T12:55:30;17.70;62.20
34989;DHT22;21192;40.182;44.516;2023-11-19T12:57:58;17.70;61.70
34989;DHT22;21192;40.182;44.516;2023-11-19T13:00:26;17.60;61.70
34989;DHT22;21192;40.182;44.516;2023-11-19T13:02:54;17.60;61.70
34989;DHT22;21192;40.182;44.516;2023-11-19T13:05:28;17.60;61.80
34989;DHT22;21192;40.182;44.516;2023-11-19T13:08:05;17.60;61.90
34989;DHT22;21192;40.182;44.516;2023-11-19T13:10:32;17.60;62.10
34989;DHT22;21192;40.182;44.516;2023-11-19T13:13:06;17.50;62.00
34989;DHT22;21192;40.182;44.516;2023-11-19T13:15:34;17.50;61.90
34989;DHT22;21192;40.182;44.516;2023-11-19T13:18:01;17.50;61.90
34989;DHT22;21192;40.182;44.516;2023-11-19T13:20:27;17.50;62.00
34989;DHT22;21192;40.182;44.516;2023-11-19T13:22:58;17.50;62.10
34989;DHT22;21192;40.182;44.516;2023-11-19T13:25:24;17.50;62.00
34989;DHT22;21192;40.182;44.516;2023-11-19T13:27:50;17.50;61.90
34989;DHT22;21192;40.182;44.516;2023-11-19T13:30:16;17.50;61.90
34989;DHT22;21192;40.182;44.516;2023-11-19T13:32:42;17.50;61.50
34989;DHT22;21192;40.182;44.516;2023-11-19T13:35:10;17.40;61.40
34989;DHT22;21192;40.182;44.516;2023-11-19T13:37:35;17.50;61.50
34989;DHT22;21192;40.182;44.516;2023-11-19T13:40:01;17.50;61.30
34989;DHT22;21192;40.182;44.516;2023-11-19T13:42:28;17.40;61.20
34989;DHT22;21192;40.182;44.516;2023-11-19T13:44:54;17.50;61.20
34989;DHT22;21192;40.182;44.516;2023-11-19T13:47:20;17.40;61.10
34989;DHT22;21192;40.182;44.516;2023-11-19T13:49:46;17.50;61.10
34989;DHT22;21192;40.182;44.516;2023-11-19T13:52:12;17.40;61.00
34989;DHT22;21192;40.182;44.516;2023-11-19T13:54:38;17.50;61.00
34989;DHT22;21192;40.182;44.516;2023-11-19T13:57:04;17.50;61.00
34989;DHT22;21192;40.182;44.516;2023-11-19T13:59:31;17.50;61.00
34989;DHT22;21192;40.182;44.516;2023-11-19T14:01:59;17.40;61.10
34989;DHT22;21192;40.182;44.516;2023-11-19T14:04:25;17.40;61.00
34989;DHT22;21192;40.182;44.516;2023-11-19T14:06:51;17.40;61.00
34989;DHT22;21192;40.182;44.516;2023-11-19T14:09:17;17.40;61.00
34989;DHT22;21192;40.182;44.516;2023-11-19T14:11:43;17.40;60.90
34989;DHT22;21192;40.182;44.516;2023-11-19T14:14:09;17.40;60.90
34989;DHT22;21192;40.182;44.516;2023-11-19T14:16:35;17.40;60.80
34989;DHT22;21192;40.182;44.516;2023-11-19T14:19:03;17.40;60.70
34989;DHT22;21192;40.182;44.516;2023-11-19T14:21:29;17.50;60.70
34989;DHT22;21192;40.182;44.516;2023-11-19T14:23:54;17.40;60.60
34989;DHT22;21192;40.182;44.516;2023-11-19T14:26:21;17.40;60.60
34989;DHT22;21192;40.182;44.516;2023-11-19T14:28:47;17.40;60.60
34989;DHT22;21192;40.182;44.516;2023-11-19T14:31:12;17.40;60.50
34989;DHT22;21192;40.182;44.516;2023-11-19T14:33:38;17.40;60.50
34989;DHT22;21192;40.182;44.516;2023-11-19T14:36:04;17.40;60.50
34989;DHT22;21192;40.182;44.516;2023-11-19T14:38:32;17.40;60.40
34989;DHT22;21192;40.182;44.516;2023-11-19T14:40:58;17.40;60.30
34989;DHT22;21192;40.182;44.516;2023-11-19T14:43:25;17.50;60.30
34989;DHT22;21192;40.182;44.516;2023-11-19T14:45:51;17.40;60.30
34989;DHT22;21192;40.182;44.516;2023-11-19T14:48:18;17.40;60.20
34989;DHT22;21192;40.182;44.516;2023-11-19T14:50:44;17.40;60.10
34989;DHT22;21192;40.182;44.516;2023-11-19T14:53:12;17.40;60.20
34989;DHT22;21192;40.182;44.516;2023-11-19T14:55:38;17.40;60.00
34989;DHT22;21192;40.182;44.516;2023-11-19T14:58:04;17.50;60.00
34989;DHT22;21192;40.182;44.516;2023-11-19T15:00:30;17.50;59.90
34989;DHT22;21192;40.182;44.516;2023-11-19T15:02:55;17.50;59.90
34989;DHT22;21192;40.182;44.516;2023-11-19T15:05:21;17.50;59.90
34989;DHT22;21192;40.182;44.516;2023-11-19T15:07:48;17.50;59.70
34989;DHT22;21192;40.182;44.516;2023-11-19T15:10:14;17.50;59.80
34989;DHT22;21192;40.182;44.516;2023-11-19T15:12:40;17.50;59.60
34989;DHT22;21192;40.182;44.516;2023-11-19T15:15:09;17.50;59.50
34989;DHT22;21192;40.182;44.516;2023-11-19T15:17:40;17.60;59.40
34989;DHT22;21192;40.182;44.516;2023-11-19T15:20:07;17.60;59.30
34989;DHT22;21192;40.182;44.516;2023-11-19T15:22:33;17.60;59.40
34989;DHT22;21192;40.182;44.516;2023-11-19T15:24:59;17.60;59.30
34989;DHT22;21192;40.182;44.516;2023-11-19T15:27:25;17.60;59.20
34989;DHT22;21192;40.182;44.516;2023-11-19T15:29:50;17.70;59.10
34989;DHT22;21192;40.182;44.516;2023-11-19T15:32:16;17.70;59.00
34989;DHT22;21192;40.182;44.516;2023-11-19T15:34:43;17.70;59.00
34989;DHT22;21192;40.182;44.516;2023-11-19T15:37:09;17.70;58.90
34989;DHT22;21192;40.182;44.516;2023-11-19T15:39:37;17.70;58.80